• Join FlightAware (Why Join?)
  • Login
  • US Flag 
10:38PM EDT


 

Airport Tracker/Info


-or-


 

Live Flight TrackerFlight Track Log ✈ UAL4696 ✈ 16-Nov-2013 ✈ KCLE - KMCI

Flight Track Log - Related Links

Times and Time Zones

All times are in EST time to prevent confusion due to time zone crossing. See the UAL4696 flight status page for this flight to view local times or setup timezone preferences in your user account.

Time Position Orientation Groundspeed Altitude Reporting Facility
EST Latitude Longitude Course Direction KTS MPH feet Rate Location/Type
06:02PM 41.3953 -81.8731 260° West 166 191 1,800  Level Cleveland Center
06:03PM 41.3886 -81.9222 260° West 202 232 4,000 2,760 Climbing Cleveland Center
06:04PM 41.3803 -81.9733 258° West 202 232 5,900 3,000 Climbing Cleveland Center
06:04PM 41.3706 -82.0031 246° West 243 280 7,100 3,540 Climbing Cleveland Center
06:05PM 41.3536 -82.0556 247° West 238 274 9,500 2,040 Climbing Cleveland Center
06:06PM 41.3136 -82.1683 245° Southwest 297 342 10,900 1,560 Climbing Cleveland Center
06:07PM 41.2728 -82.2822 245° Southwest 336 387 12,800 2,160 Climbing Cleveland Center
06:08PM 41.2367 -82.3997 248° West 341 392 15,400 1,560 Climbing Cleveland Center
06:09PM 41.2136 -82.5236 256° West 343 395 16,000 1,200 Climbing Cleveland Center
06:10PM 41.1875 -82.6517 255° West 356 410 18,000 1,740 Climbing Cleveland Center
06:11PM 41.1617 -82.7778 255° West 352 405 19,600 1,560 Climbing Cleveland Center
06:12PM 41.1344 -82.9069 254° West 358 412 21,200 1,500 Climbing Cleveland Center
06:13PM 41.1078 -83.0383 255° West 364 419 22,800 1,800 Climbing Cleveland Center
06:14PM 41.0808 -83.1642 254° West 354 407 25,000 1,800 Climbing Cleveland Center
06:15PM 41.0569 -83.2817 255° West 339 390 26,500 1,560 Climbing Cleveland Center
06:16PM 41.0258 -83.4275 254° West 344 396 28,300 1,560 Climbing Cleveland Center
06:17PM 41.0000 -83.5492 254° West 346 398 29,800 1,440 Climbing Cleveland Center
06:18PM 40.9725 -83.6722 254° West 348 400 31,300 1,500 Climbing Indianapolis Center
06:19PM 40.9397 -83.7917 250° West 350 403 32,900 1,680 Climbing Indianapolis Center
06:20PM 40.8933 -83.9008 241° Southwest 344 396 34,800 1,500 Climbing Indianapolis Center
06:21PM 40.8497 -84.0061 241° Southwest 331 381 36,000 360 Climbing Indianapolis Center
06:23PM 40.7683 -84.2297 244° Southwest 343 395 36,000  Level Indianapolis Center
06:24PM 40.7517 -84.3558 260° West 348 400 36,000  Level Indianapolis Center
06:25PM 40.7317 -84.5047 260° West 346 398 36,000  Level Indianapolis Center
06:26PM 40.7181 -84.6308 262° West 348 400 36,000  Level Indianapolis Center
06:27PM 40.7058 -84.7561 263° West 347 399 36,000  Level Indianapolis Center
06:28PM 40.6928 -84.8825 262° West 348 400 36,000  Level Indianapolis Center
06:29PM 40.6794 -85.0000 262° West 351 404 36,000  Level Indianapolis Center
06:30PM 40.6642 -85.1503 262° West 348 400 36,000  Level Indianapolis Center
06:31PM 40.6519 -85.2717 262° West 339 390 36,000  Level Indianapolis Center
06:32PM 40.6383 -85.3939 262° West 339 390 36,000  Level Indianapolis Center
06:33PM 40.6253 -85.5139 262° West 335 386 36,000  Level Indianapolis Center
06:34PM 40.6114 -85.6372 262° West 341 392 36,000  Level Indianapolis Center
06:35PM 40.5981 -85.7633 262° West 348 400 36,000  Level Indianapolis Center
06:36PM 40.5839 -85.8906 262° West 352 405 36,000  Level Indianapolis Center
06:37PM 40.5694 -86.0183 262° West 356 410 36,000  Level Indianapolis Center
06:38PM 40.5519 -86.1706 261° West 354 407 36,000  Level Indianapolis Center
06:40PM 40.5378 -86.2994 262° West 359 413 36,000  Level Indianapolis Center
06:41PM 40.5231 -86.4272 261° West 357 411 36,000  Level Indianapolis Center
06:42PM 40.5081 -86.5550 261° West 357 411 36,000  Level Indianapolis Center
06:43PM 40.4931 -86.6817 261° West 355 409 36,000  Level Indianapolis Center
06:44PM 40.4758 -86.8286 261° West 348 400 36,000  Level Chicago Center
06:45PM 40.4608 -86.9528 261° West 346 398 36,000  Level Chicago Center
06:46PM 40.4456 -87.0775 261° West 347 399 36,000  Level Chicago Center
06:47PM 40.4300 -87.2033 261° West 350 403 36,000  Level Chicago Center
06:48PM 40.4139 -87.3303 261° West 353 406 36,000  Level Chicago Center
06:49PM 40.3956 -87.4733 260° West 358 412 36,000  Level Chicago Center
06:50PM 40.3794 -87.6022 261° West 358 412 36,000  Level Chicago Center
06:51PM 40.3633 -87.7283 261° West 353 406 36,000  Level Chicago Center
06:52PM 40.3439 -87.8803 261° West 354 407 36,000  Level Chicago Center
06:53PM 40.3281 -88.0067 261° West 353 406 36,000  Level Chicago Center
06:54PM 40.3117 -88.1325 260° West 353 406 36,000  Level Chicago Center
06:55PM 40.2947 -88.2572 260° West 350 403 36,000  Level Chicago Center
06:56PM 40.2778 -88.3786 260° West 341 392 36,000  Level Chicago Center
06:57PM 40.2622 -88.5014 261° West 342 394 36,000  Level Chicago Center
06:58PM 40.2453 -88.6208 260° West 345 397 36,000  Level Chicago Center
06:59PM 40.2250 -88.7722 260° West 351 404 36,000  Level Chicago Center
07:00PM 40.2069 -88.8981 259° West 350 403 36,000  Level Chicago Center
07:01PM 40.1872 -89.0244 258° West 353 406 36,000  Level Chicago Center
07:02PM 40.1700 -89.1506 260° West 352 405 36,000  Level Chicago Center
07:03PM 40.1519 -89.2775 259° West 353 406 36,000  Level Chicago Center
07:04PM 40.1333 -89.4008 259° West 347 399 36,000  Level Chicago Center
07:05PM 40.1164 -89.5225 260° West 342 394 36,000  Level Chicago Center
07:06PM 40.0994 -89.6444 260° West 341 392 36,000  Level Chicago Center
07:07PM 40.0769 -89.7928 259° West 345 397 36,000  Level Chicago Center
07:08PM 40.0597 -89.9153 260° West 343 395 36,000  Level Chicago Center
07:09PM 40.0414 -90.0392 259° West 345 397 36,000  Level Chicago Center
07:10PM 40.0231 -90.1622 259° West 346 398 36,000  Level Chicago Center
07:11PM 40.0044 -90.2839 259° West 342 394 36,000  Level Chicago Center
07:12PM 39.9847 -90.4056 258° West 341 392 36,000  Level Chicago Center
07:13PM 39.9653 -90.5286 258° West 346 398 36,000  Level Chicago Center
07:15PM 39.9472 -90.6556 260° West 347 399 36,000  Level Chicago Center
07:16PM 39.9275 -90.7772 258° West 345 397 36,000  Level Chicago Center
07:17PM 39.9097 -90.9000 259° West 347 399 36,000  Level Chicago Center
07:18PM 39.8864 -91.0469 258° West 347 399 36,000  Level Chicago Center
07:19PM 39.8656 -91.1703 258° West 349 402 36,000  Level Chicago Center
07:20PM 39.8467 -91.2942 259° West 351 404 36,000  Level Chicago Center
07:21PM 39.8383 -91.4203 265° West 352 405 36,000  Level Chicago Center
07:22PM 39.8233 -91.5961 264° West 353 406 36,000  Level Kansas City Center
07:23PM 39.8144 -91.7206 265° West 351 404 36,000  Level Kansas City Center
07:24PM 39.8050 -91.8478 265° West 352 405 36,000  Level Kansas City Center
07:25PM 39.7953 -91.9747 264° West 354 407 36,000 -180 Level Kansas City Center
07:26PM 39.7856 -92.1008 264° West 353 406 35,700 -900 Descending Kansas City Center
07:27PM 39.7753 -92.2283 264° West 353 406 34,200 -1,500 Descending Kansas City Center
07:28PM 39.7653 -92.3583 264° West 357 411 32,700 -1,560 Descending Kansas City Center
07:29PM 39.7539 -92.4925 264° West 364 419 31,100 -1,680 Descending Kansas City Center
07:30PM 39.7408 -92.6575 264° West 375 432 29,300 -1,620 Descending Kansas City Center
07:31PM 39.7292 -92.7928 264° West 378 435 27,800 -1,740 Descending Kansas City Center
07:32PM 39.7169 -92.9292 263° West 379 436 25,800 -2,100 Descending Kansas City Center
07:33PM 39.7044 -93.0653 263° West 381 438 23,600 -2,220 Descending Kansas City Center
07:34PM 39.6931 -93.1969 264° West 373 429 21,300 -2,220 Descending Kansas City Center
07:35PM 39.6819 -93.3208 263° West 355 409 19,100 -2,400 Descending Kansas City Center
07:36PM 39.6711 -93.4414 263° West 346 398 16,500 -2,400 Descending Kansas City Center
07:37PM 39.6608 -93.5603 264° West 338 389 14,300 -2,160 Descending Kansas City Center
07:38PM 39.6469 -93.7028 263° West 331 381 12,100 -1,620 Descending Kansas City Center
07:39PM 39.6367 -93.8108 263° West 302 348 11,100 -1,560 Descending Kansas City Center
07:40PM 39.6233 -93.8947 258° West 249 287 9,000 -1,560 Descending Kansas City Center
07:41PM 39.5819 -93.9708 235° Southwest 232 267 8,000 -720 Descending Kansas City Center
07:42PM 39.5486 -94.0361 237° Southwest 227 261 7,600 -900 Descending Kansas City Center
07:43PM 39.5269 -94.1064 248° West 224 258 6,200 -840 Descending Kansas City Center
07:44PM 39.5175 -94.2006 263° West 235 270 6,000 -120 Descending Kansas City Center
07:46PM 39.5086 -94.2817 262° West 237 273 6,000 -360 Level Kansas City Center
07:47PM 39.5006 -94.3739 264° West 232 267 5,300 -720 Descending Kansas City Center
07:48PM 39.4950 -94.4525 265° West 231 266 4,600 -1,140 Descending Kansas City Center
07:49PM 39.4914 -94.5306 267° West 227 261 3,100 -780 Descending Kansas City Center
07:50PM 39.4828 -94.6181 263° West 217 250 3,100 -60 Level Kansas City Center
07:51PM 39.4408 -94.6600 218° Southwest 196 226 3,000 -240 Descending Kansas City Center
07:52PM 39.3878 -94.6778 195° South 173 199 2,700 -420 Descending Kansas City Center
07:53PM 39.3628 -94.6850 193° South 100 115 2,200 -540 Descending Kansas City Center
07:54PM 39.3361 -94.6928 193° South 103 119 1,700 -540 Descending Kansas City Center
07:55PM 39.3008 -94.7036 193° South 114 131 1,100 -600 Descending Kansas City Center